sensor_id;sensor_type;location;lat;lon;timestamp;P1;durP1;ratioP1;P2;durP2;ratioP2
27305;SDS011;14792;50.886;6.468;2023-04-01T00:02:51;5.35;;;0.80;;
27305;SDS011;14792;50.886;6.468;2023-04-01T00:05:53;2.25;;;0.62;;
27305;SDS011;14792;50.886;6.468;2023-04-01T00:08:54;7.92;;;1.22;;
27305;SDS011;14792;50.886;6.468;2023-04-01T00:11:55;4.35;;;0.60;;
27305;SDS011;14792;50.886;6.468;2023-04-01T00:14:57;5.10;;;0.88;;
27305;SDS011;14792;50.886;6.468;2023-04-01T00:17:59;7.75;;;1.25;;
27305;SDS011;14792;50.886;6.468;2023-04-01T00:21:00;4.70;;;0.68;;
27305;SDS011;14792;50.886;6.468;2023-04-01T00:24:02;4.83;;;1.00;;
27305;SDS011;14792;50.886;6.468;2023-04-01T00:27:04;5.00;;;0.62;;
27305;SDS011;14792;50.886;6.468;2023-04-01T00:30:05;3.47;;;0.68;;
27305;SDS011;14792;50.886;6.468;2023-04-01T00:33:07;3.90;;;0.50;;
27305;SDS011;14792;50.886;6.468;2023-04-01T00:36:12;2.50;;;0.72;;
27305;SDS011;14792;50.886;6.468;2023-04-01T00:39:13;2.40;;;0.60;;
27305;SDS011;14792;50.886;6.468;2023-04-01T00:42:15;6.97;;;0.70;;
27305;SDS011;14792;50.886;6.468;2023-04-01T00:45:50;3.20;;;0.57;;
27305;SDS011;14792;50.886;6.468;2023-04-01T00:48:25;3.62;;;0.98;;
27305;SDS011;14792;50.886;6.468;2023-04-01T00:51:28;3.12;;;0.50;;
27305;SDS011;14792;50.886;6.468;2023-04-01T00:54:30;4.62;;;0.50;;
27305;SDS011;14792;50.886;6.468;2023-04-01T00:57:32;4.17;;;0.80;;
27305;SDS011;14792;50.886;6.468;2023-04-01T01:00:33;4.28;;;0.68;;
27305;SDS011;14792;50.886;6.468;2023-04-01T01:03:34;5.40;;;1.07;;
27305;SDS011;14792;50.886;6.468;2023-04-01T01:06:43;2.33;;;0.78;;
27305;SDS011;14792;50.886;6.468;2023-04-01T01:09:43;4.58;;;0.65;;
27305;SDS011;14792;50.886;6.468;2023-04-01T01:12:46;3.12;;;0.50;;
27305;SDS011;14792;50.886;6.468;2023-04-01T01:15:52;3.30;;;0.50;;
27305;SDS011;14792;50.886;6.468;2023-04-01T01:22:04;3.00;;;0.57;;
27305;SDS011;14792;50.886;6.468;2023-04-01T01:35:43;1.05;;;0.40;;
27305;SDS011;14792;50.886;6.468;2023-04-01T01:38:49;2.90;;;0.37;;
27305;SDS011;14792;50.886;6.468;2023-04-01T01:41:51;1.02;;;0.28;;
27305;SDS011;14792;50.886;6.468;2023-04-01T01:44:53;2.35;;;0.42;;
27305;SDS011;14792;50.886;6.468;2023-04-01T01:47:54;3.25;;;0.50;;
27305;SDS011;14792;50.886;6.468;2023-04-01T01:50:56;3.92;;;0.80;;
27305;SDS011;14792;50.886;6.468;2023-04-01T01:53:58;1.67;;;0.33;;
27305;SDS011;14792;50.886;6.468;2023-04-01T01:57:09;2.47;;;0.57;;
27305;SDS011;14792;50.886;6.468;2023-04-01T02:00:10;1.47;;;0.20;;
27305;SDS011;14792;50.886;6.468;2023-04-01T02:03:12;1.32;;;0.50;;
27305;SDS011;14792;50.886;6.468;2023-04-01T02:06:14;1.00;;;0.30;;
27305;SDS011;14792;50.886;6.468;2023-04-01T02:09:15;2.35;;;0.20;;
27305;SDS011;14792;50.886;6.468;2023-04-01T02:12:17;0.53;;;0.10;;
27305;SDS011;14792;50.886;6.468;2023-04-01T02:15:18;1.47;;;0.33;;
27305;SDS011;14792;50.886;6.468;2023-04-01T02:18:20;0.55;;;0.20;;
27305;SDS011;14792;50.886;6.468;2023-04-01T02:21:22;1.85;;;0.10;;
27305;SDS011;14792;50.886;6.468;2023-04-01T02:24:23;0.90;;;0.30;;
27305;SDS011;14792;50.886;6.468;2023-04-01T02:27:24;1.45;;;0.20;;
27305;SDS011;14792;50.886;6.468;2023-04-01T02:30:29;1.25;;;0.30;;
27305;SDS011;14792;50.886;6.468;2023-04-01T02:33:30;0.72;;;0.30;;
27305;SDS011;14792;50.886;6.468;2023-04-01T02:36:32;1.22;;;0.30;;
27305;SDS011;14792;50.886;6.468;2023-04-01T02:39:33;3.00;;;0.40;;
27305;SDS011;14792;50.886;6.468;2023-04-01T02:42:35;1.27;;;0.40;;
27305;SDS011;14792;50.886;6.468;2023-04-01T02:45:37;2.33;;;0.30;;
27305;SDS011;14792;50.886;6.468;2023-04-01T02:48:38;2.50;;;0.40;;
27305;SDS011;14792;50.886;6.468;2023-04-01T02:51:40;0.53;;;0.17;;
27305;SDS011;14792;50.886;6.468;2023-04-01T02:54:41;0.68;;;0.23;;
27305;SDS011;14792;50.886;6.468;2023-04-01T02:57:43;1.27;;;0.40;;
27305;SDS011;14792;50.886;6.468;2023-04-01T03:00:45;4.08;;;0.35;;
27305;SDS011;14792;50.886;6.468;2023-04-01T03:03:46;2.05;;;0.47;;
27305;SDS011;14792;50.886;6.468;2023-04-01T03:06:48;2.40;;;0.62;;
27305;SDS011;14792;50.886;6.468;2023-04-01T03:09:49;0.98;;;0.20;;
27305;SDS011;14792;50.886;6.468;2023-04-01T03:15:53;0.37;;;0.30;;
27305;SDS011;14792;50.886;6.468;2023-04-01T03:18:54;1.60;;;0.30;;
27305;SDS011;14792;50.886;6.468;2023-04-01T03:21:56;1.57;;;0.20;;
27305;SDS011;14792;50.886;6.468;2023-04-01T03:24:58;1.20;;;0.33;;
27305;SDS011;14792;50.886;6.468;2023-04-01T03:28:00;1.02;;;0.20;;
27305;SDS011;14792;50.886;6.468;2023-04-01T03:31:01;1.47;;;0.20;;
27305;SDS011;14792;50.886;6.468;2023-04-01T03:34:03;0.37;;;0.15;;
27305;SDS011;14792;50.886;6.468;2023-04-01T03:37:04;2.08;;;0.20;;
27305;SDS011;14792;50.886;6.468;2023-04-01T03:40:06;4.00;;;0.50;;
27305;SDS011;14792;50.886;6.468;2023-04-01T03:43:08;0.93;;;0.28;;
27305;SDS011;14792;50.886;6.468;2023-04-01T03:46:16;0.70;;;0.30;;
27305;SDS011;14792;50.886;6.468;2023-04-01T03:49:14;1.27;;;0.30;;
27305;SDS011;14792;50.886;6.468;2023-04-01T03:52:15;1.17;;;0.47;;
27305;SDS011;14792;50.886;6.468;2023-04-01T03:55:17;0.88;;;0.30;;
27305;SDS011;14792;50.886;6.468;2023-04-01T03:58:19;1.67;;;0.20;;
27305;SDS011;14792;50.886;6.468;2023-04-01T04:01:21;0.65;;;0.23;;
27305;SDS011;14792;50.886;6.468;2023-04-01T04:04:22;0.98;;;0.33;;
27305;SDS011;14792;50.886;6.468;2023-04-01T04:07:23;1.45;;;0.30;;
27305;SDS011;14792;50.886;6.468;2023-04-01T04:10:25;0.98;;;0.23;;
27305;SDS011;14792;50.886;6.468;2023-04-01T04:13:26;4.47;;;0.33;;
27305;SDS011;14792;50.886;6.468;2023-04-01T04:16:28;1.25;;;0.62;;
27305;SDS011;14792;50.886;6.468;2023-04-01T04:19:33;3.17;;;0.50;;
27305;SDS011;14792;50.886;6.468;2023-04-01T04:22:34;2.22;;;0.70;;
27305;SDS011;14792;50.886;6.468;2023-04-01T04:25:36;2.08;;;0.82;;
27305;SDS011;14792;50.886;6.468;2023-04-01T04:28:37;2.95;;;0.90;;
27305;SDS011;14792;50.886;6.468;2023-04-01T04:31:39;5.03;;;1.00;;
27305;SDS011;14792;50.886;6.468;2023-04-01T04:34:43;4.12;;;1.05;;
27305;SDS011;14792;50.886;6.468;2023-04-01T04:37:45;3.22;;;0.93;;
27305;SDS011;14792;50.886;6.468;2023-04-01T04:40:46;4.00;;;0.90;;
27305;SDS011;14792;50.886;6.468;2023-04-01T04:43:49;2.60;;;0.98;;
27305;SDS011;14792;50.886;6.468;2023-04-01T04:46:49;2.77;;;0.80;;
27305;SDS011;14792;50.886;6.468;2023-04-01T04:49:51;1.20;;;0.70;;
27305;SDS011;14792;50.886;6.468;2023-04-01T04:52:53;0.80;;;0.78;;
27305;SDS011;14792;50.886;6.468;2023-04-01T04:55:54;2.55;;;0.40;;
27305;SDS011;14792;50.886;6.468;2023-04-01T04:58:56;2.17;;;0.60;;
27305;SDS011;14792;50.886;6.468;2023-04-01T05:01:57;0.95;;;0.60;;
27305;SDS011;14792;50.886;6.468;2023-04-01T05:04:59;2.05;;;0.50;;
27305;SDS011;14792;50.886;6.468;2023-04-01T05:08:01;1.85;;;0.60;;
27305;SDS011;14792;50.886;6.468;2023-04-01T05:11:02;3.08;;;0.72;;
27305;SDS011;14792;50.886;6.468;2023-04-01T05:14:04;1.67;;;0.70;;
27305;SDS011;14792;50.886;6.468;2023-04-01T05:17:08;1.05;;;0.45;;
27305;SDS011;14792;50.886;6.468;2023-04-01T05:20:07;1.75;;;0.68;;
27305;SDS011;14792;50.886;6.468;2023-04-01T05:23:09;0.93;;;0.60;;
27305;SDS011;14792;50.886;6.468;2023-04-01T05:26:11;3.30;;;0.93;;
27305;SDS011;14792;50.886;6.468;2023-04-01T05:29:12;1.07;;;0.50;;
27305;SDS011;14792;50.886;6.468;2023-04-01T05:32:13;0.60;;;0.60;;
27305;SDS011;14792;50.886;6.468;2023-04-01T05:35:15;1.07;;;0.57;;
27305;SDS011;14792;50.886;6.468;2023-04-01T05:38:16;1.00;;;0.50;;
27305;SDS011;14792;50.886;6.468;2023-04-01T05:41:19;0.80;;;0.60;;
27305;SDS011;14792;50.886;6.468;2023-04-01T05:47:22;1.20;;;0.60;;
27305;SDS011;14792;50.886;6.468;2023-04-01T05:50:23;1.00;;;0.90;;
27305;SDS011;14792;50.886;6.468;2023-04-01T05:53:25;2.22;;;0.80;;
27305;SDS011;14792;50.886;6.468;2023-04-01T05:56:26;1.10;;;0.85;;
27305;SDS011;14792;50.886;6.468;2023-04-01T05:59:28;4.08;;;0.80;;
27305;SDS011;14792;50.886;6.468;2023-04-01T06:02:30;1.67;;;1.15;;
27305;SDS011;14792;50.886;6.468;2023-04-01T06:05:36;2.35;;;1.25;;
27305;SDS011;14792;50.886;6.468;2023-04-01T06:08:33;1.65;;;1.32;;
27305;SDS011;14792;50.886;6.468;2023-04-01T06:11:37;3.05;;;1.72;;
27305;SDS011;14792;50.886;6.468;2023-04-01T06:22:05;3.20;;;2.25;;
27305;SDS011;14792;50.886;6.468;2023-04-01T06:30:53;4.92;;;2.08;;
27305;SDS011;14792;50.886;6.468;2023-04-01T06:40:42;3.45;;;2.12;;
27305;SDS011;14792;50.886;6.468;2023-04-01T06:47:49;3.50;;;2.00;;
27305;SDS011;14792;50.886;6.468;2023-04-01T06:50:37;4.05;;;2.12;;
27305;SDS011;14792;50.886;6.468;2023-04-01T06:53:35;3.87;;;2.15;;
27305;SDS011;14792;50.886;6.468;2023-04-01T06:56:37;6.05;;;2.30;;
27305;SDS011;14792;50.886;6.468;2023-04-01T06:59:39;4.17;;;2.20;;
27305;SDS011;14792;50.886;6.468;2023-04-01T07:02:54;8.33;;;2.30;;
27305;SDS011;14792;50.886;6.468;2023-04-01T07:06:04;3.37;;;2.02;;
27305;SDS011;14792;50.886;6.468;2023-04-01T07:09:18;4.72;;;2.30;;
27305;SDS011;14792;50.886;6.468;2023-04-01T07:15:24;4.92;;;2.00;;
27305;SDS011;14792;50.886;6.468;2023-04-01T07:18:28;4.85;;;2.30;;
27305;SDS011;14792;50.886;6.468;2023-04-01T07:24:54;3.65;;;2.20;;
27305;SDS011;14792;50.886;6.468;2023-04-01T07:27:57;1.72;;;1.60;;
27305;SDS011;14792;50.886;6.468;2023-04-01T07:37:33;2.95;;;1.90;;
27305;SDS011;14792;50.886;6.468;2023-04-01T07:47:17;2.58;;;1.40;;
27305;SDS011;14792;50.886;6.468;2023-04-01T07:50:25;2.55;;;1.60;;
27305;SDS011;14792;50.886;6.468;2023-04-01T07:56:42;3.17;;;1.80;;
27305;SDS011;14792;50.886;6.468;2023-04-01T08:06:37;2.22;;;1.70;;
27305;SDS011;14792;50.886;6.468;2023-04-01T08:09:41;2.17;;;1.20;;
27305;SDS011;14792;50.886;6.468;2023-04-01T08:22:04;2.17;;;1.50;;
27305;SDS011;14792;50.886;6.468;2023-04-01T08:25:05;1.65;;;1.50;;
27305;SDS011;14792;50.886;6.468;2023-04-01T08:34:30;2.85;;;1.70;;
27305;SDS011;14792;50.886;6.468;2023-04-01T08:37:30;4.60;;;1.75;;
27305;SDS011;14792;50.886;6.468;2023-04-01T08:50:18;1.92;;;1.30;;
27305;SDS011;14792;50.886;6.468;2023-04-01T08:53:21;2.72;;;1.50;;
27305;SDS011;14792;50.886;6.468;2023-04-01T09:00:01;2.85;;;1.05;;
27305;SDS011;14792;50.886;6.468;2023-04-01T09:06:18;2.27;;;1.52;;
27305;SDS011;14792;50.886;6.468;2023-04-01T09:09:29;2.10;;;1.55;;
27305;SDS011;14792;50.886;6.468;2023-04-01T09:12:30;3.25;;;1.50;;
27305;SDS011;14792;50.886;6.468;2023-04-01T09:21:41;1.37;;;0.65;;
27305;SDS011;14792;50.886;6.468;2023-04-01T09:28:12;0.95;;;0.70;;
27305;SDS011;14792;50.886;6.468;2023-04-01T09:31:32;1.15;;;0.60;;
27305;SDS011;14792;50.886;6.468;2023-04-01T09:35:07;0.50;;;0.50;;
27305;SDS011;14792;50.886;6.468;2023-04-01T09:41:32;1.17;;;1.07;;
27305;SDS011;14792;50.886;6.468;2023-04-01T10:04:57;4.25;;;2.22;;
27305;SDS011;14792;50.886;6.468;2023-04-01T11:01:49;2.33;;;1.30;;
27305;SDS011;14792;50.886;6.468;2023-04-01T11:18:04;5.03;;;2.87;;
27305;SDS011;14792;50.886;6.468;2023-04-01T11:28:07;1.42;;;0.98;;
27305;SDS011;14792;50.886;6.468;2023-04-01T11:40:35;2.10;;;1.40;;
27305;SDS011;14792;50.886;6.468;2023-04-01T11:47:03;1.45;;;1.35;;
27305;SDS011;14792;50.886;6.468;2023-04-01T12:03:54;2.35;;;1.30;;
27305;SDS011;14792;50.886;6.468;2023-04-01T12:07:21;4.47;;;1.55;;
27305;SDS011;14792;50.886;6.468;2023-04-01T12:10:38;2.95;;;1.60;;
27305;SDS011;14792;50.886;6.468;2023-04-01T12:16:50;2.05;;;1.60;;
27305;SDS011;14792;50.886;6.468;2023-04-01T12:26:43;1.85;;;1.55;;
27305;SDS011;14792;50.886;6.468;2023-04-01T12:34:14;2.67;;;2.08;;
27305;SDS011;14792;50.886;6.468;2023-04-01T12:36:26;1.98;;;1.80;;
27305;SDS011;14792;50.886;6.468;2023-04-01T12:42:59;2.27;;;1.82;;
27305;SDS011;14792;50.886;6.468;2023-04-01T12:46:13;2.22;;;1.70;;
27305;SDS011;14792;50.886;6.468;2023-04-01T12:49:34;2.85;;;2.20;;
27305;SDS011;14792;50.886;6.468;2023-04-01T12:55:42;2.25;;;1.90;;
27305;SDS011;14792;50.886;6.468;2023-04-01T12:58:55;2.50;;;2.20;;
27305;SDS011;14792;50.886;6.468;2023-04-01T13:01:59;2.58;;;2.25;;
27305;SDS011;14792;50.886;6.468;2023-04-01T13:05:19;2.25;;;2.02;;
27305;SDS011;14792;50.886;6.468;2023-04-01T13:08:45;2.35;;;2.05;;
27305;SDS011;14792;50.886;6.468;2023-04-01T13:15:07;2.50;;;2.30;;
27305;SDS011;14792;50.886;6.468;2023-04-01T13:18:57;2.90;;;2.52;;
27305;SDS011;14792;50.886;6.468;2023-04-01T13:21:31;4.70;;;3.45;;
27305;SDS011;14792;50.886;6.468;2023-04-01T13:24:43;3.95;;;3.05;;
27305;SDS011;14792;50.886;6.468;2023-04-01T13:27:48;3.60;;;2.90;;
27305;SDS011;14792;50.886;6.468;2023-04-01T13:31:08;3.67;;;3.10;;
27305;SDS011;14792;50.886;6.468;2023-04-01T13:34:16;3.87;;;3.00;;
27305;SDS011;14792;50.886;6.468;2023-04-01T13:37:46;2.80;;;2.60;;
27305;SDS011;14792;50.886;6.468;2023-04-01T14:07:22;1.98;;;1.60;;
27305;SDS011;14792;50.886;6.468;2023-04-01T14:13:58;2.35;;;1.90;;
27305;SDS011;14792;50.886;6.468;2023-04-01T14:20:29;2.27;;;1.60;;
27305;SDS011;14792;50.886;6.468;2023-04-01T14:23:32;2.47;;;1.92;;
27305;SDS011;14792;50.886;6.468;2023-04-01T14:37:11;2.62;;;1.98;;
27305;SDS011;14792;50.886;6.468;2023-04-01T14:50:21;2.85;;;2.40;;
27305;SDS011;14792;50.886;6.468;2023-04-01T15:00:00;4.58;;;2.80;;
27305;SDS011;14792;50.886;6.468;2023-04-01T15:03:20;3.58;;;2.50;;
27305;SDS011;14792;50.886;6.468;2023-04-01T15:10:05;3.12;;;2.83;;
27305;SDS011;14792;50.886;6.468;2023-04-01T15:13:13;2.70;;;2.50;;
27305;SDS011;14792;50.886;6.468;2023-04-01T15:16:25;3.33;;;2.80;;
27305;SDS011;14792;50.886;6.468;2023-04-01T15:23:17;3.15;;;2.60;;
27305;SDS011;14792;50.886;6.468;2023-04-01T15:26:19;2.83;;;2.55;;
27305;SDS011;14792;50.886;6.468;2023-04-01T15:32:42;4.33;;;2.92;;
27305;SDS011;14792;50.886;6.468;2023-04-01T15:39:29;2.95;;;2.62;;
27305;SDS011;14792;50.886;6.468;2023-04-01T15:42:28;4.20;;;3.40;;
27305;SDS011;14792;50.886;6.468;2023-04-01T15:45:34;3.92;;;3.37;;
27305;SDS011;14792;50.886;6.468;2023-04-01T15:58:31;3.83;;;2.83;;
27305;SDS011;14792;50.886;6.468;2023-04-01T16:01:34;2.25;;;2.00;;
27305;SDS011;14792;50.886;6.468;2023-04-01T16:11:08;2.60;;;2.40;;
27305;SDS011;14792;50.886;6.468;2023-04-01T16:24:37;3.98;;;3.47;;
27305;SDS011;14792;50.886;6.468;2023-04-01T16:32:09;3.22;;;2.55;;
27305;SDS011;14792;50.886;6.468;2023-04-01T16:34:30;2.60;;;2.30;;
27305;SDS011;14792;50.886;6.468;2023-04-01T16:37:39;3.20;;;2.33;;
27305;SDS011;14792;50.886;6.468;2023-04-01T16:44:10;3.37;;;2.65;;
27305;SDS011;14792;50.886;6.468;2023-04-01T16:47:10;2.72;;;2.02;;
27305;SDS011;14792;50.886;6.468;2023-04-01T16:53:21;2.55;;;2.17;;
27305;SDS011;14792;50.886;6.468;2023-04-01T16:56:28;3.00;;;2.17;;
27305;SDS011;14792;50.886;6.468;2023-04-01T16:59:35;3.33;;;2.27;;
27305;SDS011;14792;50.886;6.468;2023-04-01T17:02:38;3.62;;;2.80;;
27305;SDS011;14792;50.886;6.468;2023-04-01T17:08:47;2.90;;;2.50;;
27305;SDS011;14792;50.886;6.468;2023-04-01T17:12:17;3.30;;;2.60;;
27305;SDS011;14792;50.886;6.468;2023-04-01T17:15:16;3.95;;;3.45;;
27305;SDS011;14792;50.886;6.468;2023-04-01T17:31:45;3.00;;;2.70;;
27305;SDS011;14792;50.886;6.468;2023-04-01T17:38:11;7.08;;;3.30;;
27305;SDS011;14792;50.886;6.468;2023-04-01T17:44:33;4.55;;;3.75;;
27305;SDS011;14792;50.886;6.468;2023-04-01T17:47:41;4.62;;;4.03;;
27305;SDS011;14792;50.886;6.468;2023-04-01T17:54:16;3.92;;;3.33;;
27305;SDS011;14792;50.886;6.468;2023-04-01T17:57:46;4.20;;;3.58;;
27305;SDS011;14792;50.886;6.468;2023-04-01T18:04:34;4.28;;;3.85;;
27305;SDS011;14792;50.886;6.468;2023-04-01T18:20:57;5.92;;;5.33;;
27305;SDS011;14792;50.886;6.468;2023-04-01T18:23:57;6.87;;;5.92;;
27305;SDS011;14792;50.886;6.468;2023-04-01T18:27:02;7.15;;;6.42;;
27305;SDS011;14792;50.886;6.468;2023-04-01T18:30:18;6.87;;;6.17;;
27305;SDS011;14792;50.886;6.468;2023-04-01T18:33:28;6.55;;;5.85;;
27305;SDS011;14792;50.886;6.468;2023-04-01T18:39:45;6.58;;;5.72;;
27305;SDS011;14792;50.886;6.468;2023-04-01T18:42:53;7.30;;;5.90;;
27305;SDS011;14792;50.886;6.468;2023-04-01T18:45:57;9.00;;;5.55;;
27305;SDS011;14792;50.886;6.468;2023-04-01T18:55:39;7.47;;;6.17;;
27305;SDS011;14792;50.886;6.468;2023-04-01T18:58:50;8.13;;;6.08;;
27305;SDS011;14792;50.886;6.468;2023-04-01T19:01:57;7.08;;;6.37;;
27305;SDS011;14792;50.886;6.468;2023-04-01T19:06:13;6.10;;;5.50;;
27305;SDS011;14792;50.886;6.468;2023-04-01T19:08:33;6.45;;;5.83;;
27305;SDS011;14792;50.886;6.468;2023-04-01T19:11:39;6.55;;;5.83;;
27305;SDS011;14792;50.886;6.468;2023-04-01T19:14:57;7.17;;;6.45;;
27305;SDS011;14792;50.886;6.468;2023-04-01T19:18:09;8.60;;;7.67;;
27305;SDS011;14792;50.886;6.468;2023-04-01T19:21:17;9.25;;;7.90;;
27305;SDS011;14792;50.886;6.468;2023-04-01T19:24:42;9.10;;;8.10;;
27305;SDS011;14792;50.886;6.468;2023-04-01T19:27:50;11.35;;;8.75;;
27305;SDS011;14792;50.886;6.468;2023-04-01T19:30:54;10.25;;;8.85;;
27305;SDS011;14792;50.886;6.468;2023-04-01T19:40:54;8.43;;;7.20;;
27305;SDS011;14792;50.886;6.468;2023-04-01T19:44:20;6.75;;;6.08;;
27305;SDS011;14792;50.886;6.468;2023-04-01T19:47:20;6.72;;;5.70;;
27305;SDS011;14792;50.886;6.468;2023-04-01T19:59:53;8.45;;;5.35;;
27305;SDS011;14792;50.886;6.468;2023-04-01T20:06:19;5.60;;;5.05;;
27305;SDS011;14792;50.886;6.468;2023-04-01T20:12:40;5.87;;;4.58;;
27305;SDS011;14792;50.886;6.468;2023-04-01T20:15:57;7.78;;;5.55;;
27305;SDS011;14792;50.886;6.468;2023-04-01T20:18:56;7.92;;;6.42;;
27305;SDS011;14792;50.886;6.468;2023-04-01T20:21:57;7.10;;;6.33;;
27305;SDS011;14792;50.886;6.468;2023-04-01T20:24:59;6.92;;;5.47;;
27305;SDS011;14792;50.886;6.468;2023-04-01T20:28:10;6.80;;;5.25;;
27305;SDS011;14792;50.886;6.468;2023-04-01T20:31:17;6.40;;;5.35;;
27305;SDS011;14792;50.886;6.468;2023-04-01T20:40:50;12.50;;;9.43;;
27305;SDS011;14792;50.886;6.468;2023-04-01T20:50:19;8.28;;;6.05;;
27305;SDS011;14792;50.886;6.468;2023-04-01T20:53:28;8.13;;;6.60;;
27305;SDS011;14792;50.886;6.468;2023-04-01T20:56:32;8.03;;;6.80;;
27305;SDS011;14792;50.886;6.468;2023-04-01T20:59:44;9.58;;;7.12;;
27305;SDS011;14792;50.886;6.468;2023-04-01T21:13:17;8.15;;;7.00;;
27305;SDS011;14792;50.886;6.468;2023-04-01T21:20:01;8.58;;;7.67;;
27305;SDS011;14792;50.886;6.468;2023-04-01T21:23:08;8.35;;;7.08;;
27305;SDS011;14792;50.886;6.468;2023-04-01T21:39:20;11.35;;;9.33;;
27305;SDS011;14792;50.886;6.468;2023-04-01T21:45:42;12.13;;;9.18;;
27305;SDS011;14792;50.886;6.468;2023-04-01T21:58:59;13.48;;;10.43;;
27305;SDS011;14792;50.886;6.468;2023-04-01T22:11:58;28.60;;;22.10;;
27305;SDS011;14792;50.886;6.468;2023-04-01T22:15:45;36.98;;;27.35;;
27305;SDS011;14792;50.886;6.468;2023-04-01T22:18:06;34.67;;;26.27;;
27305;SDS011;14792;50.886;6.468;2023-04-01T22:21:13;32.95;;;25.55;;
27305;SDS011;14792;50.886;6.468;2023-04-01T22:24:18;31.33;;;24.82;;
27305;SDS011;14792;50.886;6.468;2023-04-01T22:27:21;24.50;;;19.82;;
27305;SDS011;14792;50.886;6.468;2023-04-01T22:30:32;22.00;;;17.92;;
27305;SDS011;14792;50.886;6.468;2023-04-01T22:36:40;23.65;;;18.87;;
27305;SDS011;14792;50.886;6.468;2023-04-01T22:42:43;30.20;;;23.40;;
27305;SDS011;14792;50.886;6.468;2023-04-01T22:48:54;29.63;;;24.12;;
27305;SDS011;14792;50.886;6.468;2023-04-01T22:52:16;27.80;;;23.18;;
27305;SDS011;14792;50.886;6.468;2023-04-01T22:55:23;21.48;;;18.15;;
27305;SDS011;14792;50.886;6.468;2023-04-01T22:58:30;23.87;;;19.82;;
27305;SDS011;14792;50.886;6.468;2023-04-01T23:01:41;20.72;;;15.58;;
27305;SDS011;14792;50.886;6.468;2023-04-01T23:04:42;17.48;;;14.03;;
27305;SDS011;14792;50.886;6.468;2023-04-01T23:07:56;16.95;;;13.32;;
27305;SDS011;14792;50.886;6.468;2023-04-01T23:10:58;17.50;;;14.58;;
27305;SDS011;14792;50.886;6.468;2023-04-01T23:17:30;20.60;;;15.53;;
27305;SDS011;14792;50.886;6.468;2023-04-01T23:24:38;12.18;;;9.95;;
27305;SDS011;14792;50.886;6.468;2023-04-01T23:31:02;9.43;;;7.20;;
27305;SDS011;14792;50.886;6.468;2023-04-01T23:37:14;8.70;;;7.08;;
27305;SDS011;14792;50.886;6.468;2023-04-01T23:40:16;12.40;;;7.95;;
27305;SDS011;14792;50.886;6.468;2023-04-01T23:43:25;8.50;;;7.40;;
27305;SDS011;14792;50.886;6.468;2023-04-01T23:46:25;9.63;;;7.70;;
27305;SDS011;14792;50.886;6.468;2023-04-01T23:52:34;12.23;;;9.20;;
27305;SDS011;14792;50.886;6.468;2023-04-01T23:55:40;14.07;;;9.15;;
